Time;durP1;ratioP1;P1;durP2;ratioP2;P2;SDS_P1;SDS_P2;PMS_P1;PMS_P2;Temp;Humidity;BMP_temperature;BMP_pressure;BME280_temperature;BME280_humidity;BME280_pressure;Samples;Min_cycle;Max_cycle;Signal;HPM_P1;HPM_P2
2021/05/13 00:02:06;;;;;;;1.33;1.20;;;;;;;;;;5113573;28;20185;-41
2021/05/13 00:04:32;;;;;;;1.63;1.52;;;;;;;;;;5100648;28;20173;-41
2021/05/13 00:06:57;;;;;;;1.58;1.10;;;;;;;;;;5114611;28;20452;-41
2021/05/13 00:09:23;;;;;;;1.10;1.10;;;;;;;;;;5114733;28;20257;-42
2021/05/13 00:11:51;;;;;;;1.73;1.40;;;;;;;;;;5101666;28;20189;-42
2021/05/13 00:14:17;;;;;;;1.00;1.00;;;;;;;;;;5094601;28;20446;-41
2021/05/13 00:16:44;;;;;;;1.70;1.20;;;;;;;;;;5114825;28;20185;-42
2021/05/13 00:19:12;;;;;;;2.35;1.20;;;;;;;;;;5114676;28;20173;-41
2021/05/13 00:21:38;;;;;;;2.25;1.10;;;;;;;;;;5111193;28;20253;-41
2021/05/13 00:24:05;;;;;;;1.30;1.00;;;;;;;;;;5095814;28;20722;-41
2021/05/13 00:26:38;;;;;;;1.38;1.27;;;;;;;;;;5094767;28;20642;-41
2021/05/13 00:29:11;;;;;;;2.28;1.00;;;;;;;;;;5109949;28;20191;-41
2021/05/13 00:31:38;;;;;;;1.35;1.25;;;;;;;;;;5114122;28;20181;-41
2021/05/13 00:34:05;;;;;;;1.42;1.33;;;;;;;;;;5113607;28;20862;-41
2021/05/13 00:36:32;;;;;;;1.27;1.17;;;;;;;;;;5114326;28;20548;-41
2021/05/13 00:38:59;;;;;;;0.95;0.82;;;;;;;;;;5113963;28;20225;-41
2021/05/13 00:41:25;;;;;;;1.20;1.10;;;;;;;;;;5110992;28;20200;-41
2021/05/13 00:43:51;;;;;;;1.85;1.05;;;;;;;;;;5118817;28;20168;-41
2021/05/13 00:46:18;;;;;;;1.35;1.08;;;;;;;;;;5118641;28;20176;-41
2021/05/13 00:48:46;;;;;;;1.17;1.05;;;;;;;;;;5117894;28;20503;-41
2021/05/13 00:51:12;;;;;;;1.60;1.40;;;;;;;;;;5117168;28;20221;-41
2021/05/13 00:53:40;;;;;;;1.30;0.90;;;;;;;;;;5118292;28;20180;-41
2021/05/13 00:56:06;;;;;;;1.17;1.05;;;;;;;;;;5117876;28;20305;-41
2021/05/13 00:58:35;;;;;;;1.08;0.98;;;;;;;;;;5107206;28;20193;-41
2021/05/13 01:01:07;;;;;;;1.00;0.90;;;;;;;;;;5107765;28;20283;-41
2021/05/13 01:03:34;;;;;;;0.88;0.88;;;;;;;;;;5098199;28;20170;-41
2021/05/13 01:06:02;;;;;;;1.13;0.98;;;;;;;;;;5112987;28;20180;-41
2021/05/13 01:08:28;;;;;;;1.10;1.00;;;;;;;;;;5114294;28;20170;-41
2021/05/13 01:10:54;;;;;;;1.05;0.90;;;;;;;;;;5107087;28;20208;-41
2021/05/13 01:13:23;;;;;;;0.77;0.77;;;;;;;;;;5118059;28;20176;-41
2021/05/13 01:16:44;;;;;;;2.17;1.00;;;;;;;;;;5117953;28;20189;-41
2021/05/13 01:18:41;;;;;;;0.70;0.70;;;;;;;;;;5097966;28;20604;-41
2021/05/13 01:21:07;;;;;;;1.85;0.95;;;;;;;;;;5117049;28;20572;-41
2021/05/13 01:23:33;;;;;;;1.00;0.90;;;;;;;;;;5117762;28;20292;-41
2021/05/13 01:25:59;;;;;;;0.95;0.70;;;;;;;;;;5116838;28;20571;-41
2021/05/13 01:28:28;;;;;;;0.80;0.80;;;;;;;;;;5115646;28;20181;-41
2021/05/13 01:30:55;;;;;;;1.75;0.90;;;;;;;;;;5117259;28;20219;-41
2021/05/13 01:33:22;;;;;;;0.70;0.70;;;;;;;;;;5118045;28;20286;-41
2021/05/13 01:35:49;;;;;;;0.80;0.80;;;;;;;;;;5117910;28;20222;-41
2021/05/13 01:38:16;;;;;;;0.98;0.90;;;;;;;;;;5117293;28;20264;-41
2021/05/13 01:40:49;;;;;;;1.00;0.77;;;;;;;;;;5116728;28;20212;-41
2021/05/13 01:43:16;;;;;;;1.00;0.90;;;;;;;;;;5117368;28;20234;-41
2021/05/13 01:45:42;;;;;;;0.95;0.70;;;;;;;;;;5109919;28;20178;-41
2021/05/13 01:48:08;;;;;;;1.08;0.73;;;;;;;;;;5103944;28;20181;-41
2021/05/13 01:50:35;;;;;;;0.70;0.70;;;;;;;;;;5115784;28;20419;-41
2021/05/13 01:53:03;;;;;;;0.93;0.80;;;;;;;;;;5116414;28;20181;-41
2021/05/13 01:55:29;;;;;;;0.95;0.90;;;;;;;;;;5116779;28;20184;-41
2021/05/13 01:57:55;;;;;;;0.85;0.80;;;;;;;;;;5116525;28;20181;-41
2021/05/13 02:00:21;;;;;;;1.30;0.75;;;;;;;;;;5116637;28;20197;-41
2021/05/13 02:02:49;;;;;;;0.70;0.70;;;;;;;;;;5116098;28;20257;-41
2021/05/13 02:05:16;;;;;;;0.70;0.70;;;;;;;;;;5116163;28;20177;-41
2021/05/13 02:07:42;;;;;;;0.70;0.70;;;;;;;;;;5115657;28;20180;-41
2021/05/13 02:10:10;;;;;;;0.70;0.70;;;;;;;;;;5105108;28;20181;-41
2021/05/13 02:12:36;;;;;;;1.42;0.88;;;;;;;;;;5116494;28;20164;-41
2021/05/13 02:15:02;;;;;;;0.50;0.50;;;;;;;;;;5116770;28;20176;-41
2021/05/13 02:17:28;;;;;;;0.60;0.60;;;;;;;;;;5116781;28;20260;-41
2021/05/13 02:19:54;;;;;;;0.50;0.50;;;;;;;;;;5116398;28;20311;-41
2021/05/13 02:22:20;;;;;;;0.60;0.60;;;;;;;;;;5110928;28;20218;-41
2021/05/13 02:24:46;;;;;;;0.80;0.80;;;;;;;;;;5116797;28;20179;-41
2021/05/13 02:27:12;;;;;;;0.75;0.57;;;;;;;;;;5116773;28;20169;-41
2021/05/13 02:29:38;;;;;;;0.65;0.60;;;;;;;;;;5116565;28;20173;-41
2021/05/13 02:32:04;;;;;;;0.68;0.68;;;;;;;;;;5116280;28;20451;-41
2021/05/13 02:34:30;;;;;;;0.70;0.70;;;;;;;;;;5115771;28;20278;-41
2021/05/13 02:36:56;;;;;;;1.50;0.65;;;;;;;;;;5115975;28;20470;-41
2021/05/13 02:39:22;;;;;;;0.60;0.60;;;;;;;;;;5111884;28;20174;-41
2021/05/13 02:41:48;;;;;;;0.60;0.60;;;;;;;;;;5095668;28;20194;-41
2021/05/13 02:44:14;;;;;;;0.50;0.50;;;;;;;;;;5114806;28;20180;-41
2021/05/13 02:46:40;;;;;;;0.98;0.70;;;;;;;;;;5116346;28;20455;-41
2021/05/13 02:49:06;;;;;;;0.90;0.70;;;;;;;;;;5116092;28;20242;-41
2021/05/13 02:51:32;;;;;;;0.60;0.60;;;;;;;;;;5115011;28;20726;-41
2021/05/13 02:53:58;;;;;;;0.55;0.55;;;;;;;;;;5116098;28;20229;-41
2021/05/13 02:56:24;;;;;;;0.50;0.50;;;;;;;;;;5115764;28;20189;-41
2021/05/13 02:58:51;;;;;;;0.60;0.60;;;;;;;;;;5113358;28;20177;-41
2021/05/13 03:03:47;;;;;;;1.08;0.70;;;;;;;;;;5115038;28;20180;-41
2021/05/13 03:06:13;;;;;;;0.57;0.50;;;;;;;;;;5115117;28;20208;-41
2021/05/13 03:08:39;;;;;;;0.75;0.70;;;;;;;;;;5115353;28;20177;-41
2021/05/13 03:11:05;;;;;;;0.95;0.73;;;;;;;;;;5115446;28;20264;-41
2021/05/13 03:13:31;;;;;;;1.15;0.43;;;;;;;;;;5114413;28;20595;-42
2021/05/13 03:15:57;;;;;;;0.50;0.50;;;;;;;;;;5115611;28;20544;-41
2021/05/13 03:18:26;;;;;;;0.63;0.63;;;;;;;;;;5115500;28;20177;-41
2021/05/13 03:20:58;;;;;;;0.40;0.40;;;;;;;;;;5114489;28;20673;-41
2021/05/13 03:23:29;;;;;;;0.60;0.60;;;;;;;;;;5115356;28;20254;-41
2021/05/13 03:26:01;;;;;;;0.75;0.75;;;;;;;;;;5115850;28;20173;-41
2021/05/13 03:28:27;;;;;;;0.60;0.60;;;;;;;;;;5115526;28;20625;-41
2021/05/13 03:30:53;;;;;;;0.50;0.50;;;;;;;;;;5095990;28;20303;-41
2021/05/13 03:33:19;;;;;;;0.38;0.38;;;;;;;;;;5112642;28;20216;-41
2021/05/13 03:35:45;;;;;;;0.60;0.60;;;;;;;;;;5115511;28;20173;-41
2021/05/13 03:38:12;;;;;;;0.40;0.40;;;;;;;;;;5114886;28;20617;-41
2021/05/13 03:40:39;;;;;;;0.60;0.50;;;;;;;;;;5114520;28;20205;-41
2021/05/13 03:43:06;;;;;;;0.70;0.43;;;;;;;;;;5115410;28;20244;-41
2021/05/13 03:45:32;;;;;;;0.40;0.40;;;;;;;;;;5113069;28;20592;-41
2021/05/13 03:48:02;;;;;;;0.40;0.40;;;;;;;;;;5097914;28;20173;-41
2021/05/13 03:50:28;;;;;;;0.55;0.47;;;;;;;;;;5113957;28;20185;-41
2021/05/13 03:52:54;;;;;;;0.30;0.30;;;;;;;;;;5114367;28;20181;-41
2021/05/13 03:55:20;;;;;;;0.43;0.43;;;;;;;;;;5115428;28;20488;-41
2021/05/13 03:57:46;;;;;;;0.40;0.40;;;;;;;;;;5115043;28;20177;-41
2021/05/13 04:00:14;;;;;;;0.63;0.40;;;;;;;;;;5114447;28;20347;-41
2021/05/13 04:02:40;;;;;;;0.40;0.40;;;;;;;;;;5110130;28;20169;-41
2021/05/13 04:05:07;;;;;;;0.32;0.32;;;;;;;;;;5102729;28;20559;-41
2021/05/13 04:07:35;;;;;;;0.85;0.50;;;;;;;;;;5096304;28;20218;-41
2021/05/13 04:10:03;;;;;;;0.40;0.40;;;;;;;;;;5114777;28;20169;-41
2021/05/13 04:12:29;;;;;;;0.20;0.20;;;;;;;;;;5111484;28;20237;-41
2021/05/13 04:14:57;;;;;;;0.28;0.28;;;;;;;;;;5105183;28;20189;-41
2021/05/13 04:17:23;;;;;;;0.40;0.40;;;;;;;;;;5112227;28;20176;-41
2021/05/13 04:19:49;;;;;;;0.65;0.65;;;;;;;;;;5117723;28;20187;-41
2021/05/13 04:22:15;;;;;;;0.22;0.22;;;;;;;;;;5118315;28;20193;-41
2021/05/13 04:24:42;;;;;;;0.93;0.50;;;;;;;;;;5119244;28;20554;-41
2021/05/13 04:27:08;;;;;;;0.30;0.30;;;;;;;;;;5119107;28;20180;-42
2021/05/13 04:29:34;;;;;;;0.30;0.30;;;;;;;;;;5117590;28;20202;-41
2021/05/13 04:32:00;;;;;;;0.68;0.30;;;;;;;;;;5118619;28;20169;-41
2021/05/13 04:34:26;;;;;;;0.30;0.30;;;;;;;;;;5118287;28;20536;-41
2021/05/13 04:36:52;;;;;;;0.40;0.40;;;;;;;;;;5117436;28;20177;-41
2021/05/13 04:39:18;;;;;;;0.35;0.35;;;;;;;;;;5119136;28;20270;-41
2021/05/13 04:41:44;;;;;;;0.32;0.32;;;;;;;;;;5118173;28;20274;-41
2021/05/13 04:44:10;;;;;;;0.30;0.30;;;;;;;;;;5113069;28;20216;-41
2021/05/13 04:46:37;;;;;;;0.45;0.30;;;;;;;;;;5087602;28;20173;-41
2021/05/13 04:51:31;;;;;;;0.40;0.40;;;;;;;;;;5116978;28;20181;-41
2021/05/13 04:53:58;;;;;;;0.30;0.30;;;;;;;;;;5114258;28;20271;-41
2021/05/13 04:56:24;;;;;;;0.75;0.38;;;;;;;;;;5118080;28;20177;-41
2021/05/13 04:58:50;;;;;;;0.40;0.40;;;;;;;;;;5118654;28;20169;-41
2021/05/13 05:01:16;;;;;;;0.52;0.43;;;;;;;;;;5117896;28;20212;-41
2021/05/13 05:03:43;;;;;;;0.30;0.30;;;;;;;;;;5118141;28;20429;-41
2021/05/13 05:06:12;;;;;;;0.30;0.30;;;;;;;;;;5117924;28;20185;-41
2021/05/13 05:08:38;;;;;;;0.30;0.30;;;;;;;;;;5114957;28;20188;-41
2021/05/13 05:11:05;;;;;;;0.52;0.52;;;;;;;;;;5106227;28;20190;-41
2021/05/13 05:13:31;;;;;;;0.30;0.30;;;;;;;;;;5118393;28;20165;-41
2021/05/13 05:15:57;;;;;;;0.28;0.28;;;;;;;;;;5118466;28;20271;-41
2021/05/13 05:18:24;;;;;;;2.22;0.50;;;;;;;;;;5118039;28;20185;-41
2021/05/13 05:20:50;;;;;;;0.40;0.40;;;;;;;;;;5117433;28;20212;-41
2021/05/13 05:23:17;;;;;;;0.30;0.30;;;;;;;;;;5117851;28;20299;-41
2021/05/13 05:25:43;;;;;;;2.08;0.75;;;;;;;;;;5110894;28;20200;-41
2021/05/13 05:28:09;;;;;;;0.30;0.30;;;;;;;;;;5115668;28;20560;-41
2021/05/13 05:30:36;;;;;;;2.60;0.35;;;;;;;;;;5117708;28;20172;-41
2021/05/13 05:33:03;;;;;;;0.32;0.20;;;;;;;;;;5117436;28;20191;-41
2021/05/13 05:35:29;;;;;;;0.40;0.35;;;;;;;;;;5117994;28;20181;-41
2021/05/13 05:37:55;;;;;;;0.70;0.47;;;;;;;;;;5117026;28;20196;-41
2021/05/13 05:40:22;;;;;;;0.60;0.38;;;;;;;;;;5117458;28;20208;-41
2021/05/13 05:42:48;;;;;;;0.30;0.30;;;;;;;;;;5111189;28;20174;-41
2021/05/13 05:45:14;;;;;;;0.50;0.32;;;;;;;;;;5105247;28;20250;-41
2021/05/13 05:47:41;;;;;;;0.55;0.30;;;;;;;;;;5117813;28;20208;-41
2021/05/13 05:50:07;;;;;;;0.40;0.40;;;;;;;;;;5115436;28;20173;-41
2021/05/13 05:52:33;;;;;;;1.05;0.40;;;;;;;;;;5111562;28;20169;-41
2021/05/13 05:54:59;;;;;;;0.45;0.40;;;;;;;;;;5117717;28;20468;-41
2021/05/13 05:57:25;;;;;;;0.47;0.45;;;;;;;;;;5117250;28;20180;-41
2021/05/13 05:59:52;;;;;;;0.57;0.35;;;;;;;;;;5101795;28;20218;-41
2021/05/13 06:02:18;;;;;;;1.30;0.30;;;;;;;;;;5108557;28;20225;-42
2021/05/13 06:04:44;;;;;;;0.85;0.28;;;;;;;;;;5102880;28;20173;-41
2021/05/13 06:07:10;;;;;;;0.85;0.30;;;;;;;;;;5116974;28;21577;-41
2021/05/13 06:09:36;;;;;;;0.30;0.30;;;;;;;;;;5109018;28;20182;-42
2021/05/13 06:12:03;;;;;;;0.95;0.38;;;;;;;;;;5109807;28;20189;-41
2021/05/13 06:14:29;;;;;;;1.65;0.38;;;;;;;;;;5117170;28;20518;-41
2021/05/13 06:16:55;;;;;;;2.13;0.43;;;;;;;;;;5116774;28;20238;-41
2021/05/13 06:19:21;;;;;;;1.23;0.40;;;;;;;;;;5116997;28;20166;-41
2021/05/13 06:21:47;;;;;;;1.55;0.43;;;;;;;;;;5115896;28;20201;-41
2021/05/13 06:24:14;;;;;;;1.42;0.30;;;;;;;;;;5107625;28;20272;-42
2021/05/13 06:26:40;;;;;;;0.47;0.30;;;;;;;;;;5108057;28;20209;-41
2021/05/13 06:29:07;;;;;;;0.68;0.47;;;;;;;;;;5116980;28;20201;-41
2021/05/13 06:31:34;;;;;;;0.80;0.40;;;;;;;;;;5115888;28;20273;-41
2021/05/13 06:34:00;;;;;;;0.52;0.32;;;;;;;;;;5116928;28;20173;-41
2021/05/13 06:36:27;;;;;;;0.20;0.20;;;;;;;;;;5115571;28;20200;-42
2021/05/13 06:38:53;;;;;;;1.52;0.32;;;;;;;;;;5116108;28;20169;-41
2021/05/13 06:41:19;;;;;;;3.55;0.30;;;;;;;;;;5105201;28;20298;-41
2021/05/13 06:43:46;;;;;;;0.30;0.20;;;;;;;;;;5108607;28;20185;-41
2021/05/13 06:46:12;;;;;;;0.43;0.40;;;;;;;;;;5116077;28;20590;-41
2021/05/13 06:48:39;;;;;;;2.70;0.60;;;;;;;;;;5116652;28;20169;-41
2021/05/13 06:51:05;;;;;;;3.72;0.30;;;;;;;;;;5115038;28;20204;-41
2021/05/13 06:53:31;;;;;;;1.23;0.40;;;;;;;;;;5115687;28;20513;-41
2021/05/13 06:55:57;;;;;;;3.10;0.60;;;;;;;;;;5115819;28;20195;-41
2021/05/13 06:58:23;;;;;;;1.95;0.70;;;;;;;;;;5114248;28;20567;-41
2021/05/13 07:00:49;;;;;;;1.45;0.82;;;;;;;;;;5115271;28;20283;-42
2021/05/13 07:03:16;;;;;;;2.45;0.73;;;;;;;;;;5116020;28;20254;-41
2021/05/13 07:05:42;;;;;;;2.17;0.73;;;;;;;;;;5115506;28;20178;-42
2021/05/13 07:08:09;;;;;;;2.92;0.90;;;;;;;;;;5115629;28;20188;-41
2021/05/13 07:10:36;;;;;;;3.15;0.70;;;;;;;;;;5115171;28;20169;-41
2021/05/13 07:13:02;;;;;;;7.78;0.90;;;;;;;;;;5115958;28;20581;-42
2021/05/13 07:15:28;;;;;;;1.77;0.40;;;;;;;;;;5114210;28;20185;-41
2021/05/13 07:17:54;;;;;;;2.50;0.50;;;;;;;;;;5104497;28;20178;-42
2021/05/13 07:20:21;;;;;;;1.48;0.60;;;;;;;;;;5102687;28;20261;-42
2021/05/13 07:22:47;;;;;;;3.60;0.88;;;;;;;;;;5114836;28;20260;-41
2021/05/13 07:25:13;;;;;;;4.50;0.70;;;;;;;;;;5115673;28;20241;-41
2021/05/13 07:27:39;;;;;;;6.45;0.85;;;;;;;;;;5115322;28;20531;-40
2021/05/13 07:30:06;;;;;;;2.13;0.57;;;;;;;;;;5111266;28;20185;-40
2021/05/13 07:32:32;;;;;;;2.40;0.70;;;;;;;;;;5113998;28;20176;-40
2021/05/13 07:34:57;;;;;;;9.93;0.85;;;;;;;;;;5115107;28;20821;-40
2021/05/13 07:37:25;;;;;;;2.92;0.60;;;;;;;;;;5115165;28;20173;-40
2021/05/13 07:39:51;;;;;;;7.70;0.90;;;;;;;;;;5107743;28;20541;-40
2021/05/13 07:42:17;;;;;;;7.25;0.70;;;;;;;;;;5114875;28;20176;-40
2021/05/13 07:44:43;;;;;;;2.40;0.75;;;;;;;;;;5115460;28;20567;-40
2021/05/13 07:47:10;;;;;;;5.90;1.40;;;;;;;;;;5115134;28;20181;-40
2021/05/13 07:49:36;;;;;;;3.72;0.55;;;;;;;;;;5113165;28;20185;-40
2021/05/13 07:52:02;;;;;;;2.67;0.60;;;;;;;;;;5113103;28;20210;-40
2021/05/13 07:54:28;;;;;;;1.35;0.60;;;;;;;;;;5114040;28;20181;-40
2021/05/13 07:56:55;;;;;;;3.85;1.00;;;;;;;;;;5115139;28;20241;-40
2021/05/13 07:59:21;;;;;;;4.45;0.70;;;;;;;;;;5115264;28;20185;-40
2021/05/13 08:01:47;;;;;;;4.28;0.70;;;;;;;;;;5114101;28;20204;-40
2021/05/13 08:04:13;;;;;;;3.78;0.95;;;;;;;;;;5114061;28;20185;-41
2021/05/13 08:06:39;;;;;;;2.03;1.00;;;;;;;;;;5114887;28;20176;-40
2021/05/13 08:09:05;;;;;;;3.20;0.70;;;;;;;;;;5114958;28;20201;-40
2021/05/13 08:11:31;;;;;;;3.95;0.80;;;;;;;;;;5114527;28;20169;-40
2021/05/13 08:13:57;;;;;;;3.17;0.95;;;;;;;;;;5110811;28;20242;-40
2021/05/13 08:16:23;;;;;;;5.00;0.90;;;;;;;;;;5114759;28;20560;-40
2021/05/13 08:18:49;;;;;;;5.40;0.93;;;;;;;;;;5114997;28;20185;-40
2021/05/13 08:21:16;;;;;;;3.60;0.85;;;;;;;;;;5111250;28;20553;-41
2021/05/13 08:23:42;;;;;;;4.07;0.90;;;;;;;;;;5112508;28;20200;-40
2021/05/13 08:26:08;;;;;;;2.35;0.85;;;;;;;;;;5114172;28;20209;-40
2021/05/13 08:28:34;;;;;;;4.10;0.82;;;;;;;;;;5114740;28;20187;-40
2021/05/13 08:31:00;;;;;;;3.33;0.70;;;;;;;;;;5113691;28;20600;-40
2021/05/13 08:33:26;;;;;;;4.15;0.95;;;;;;;;;;5114887;28;20252;-41
2021/05/13 08:35:52;;;;;;;2.03;0.60;;;;;;;;;;5113863;28;20425;-40
2021/05/13 08:38:18;;;;;;;2.35;0.60;;;;;;;;;;5112075;28;20181;-40
2021/05/13 08:40:44;;;;;;;1.65;0.60;;;;;;;;;;5113021;28;20201;-40
2021/05/13 08:43:23;;;;;;;1.98;0.80;;;;;;;;;;5114397;28;20181;-40
2021/05/13 08:45:50;;;;;;;3.80;0.70;;;;;;;;;;5096306;28;20257;-40
2021/05/13 08:48:17;;;;;;;3.15;0.70;;;;;;;;;;5114649;28;20169;-40
2021/05/13 08:50:43;;;;;;;2.10;0.55;;;;;;;;;;5113724;28;20571;-40
2021/05/13 08:53:09;;;;;;;1.85;0.60;;;;;;;;;;5113490;28;20216;-40
2021/05/13 08:55:35;;;;;;;2.25;0.40;;;;;;;;;;5112644;28;20180;-40
2021/05/13 08:58:01;;;;;;;2.97;0.68;;;;;;;;;;5114129;28;20181;-40
2021/05/13 09:00:27;;;;;;;1.75;0.77;;;;;;;;;;5114832;28;20291;-40
2021/05/13 09:02:53;;;;;;;4.82;0.85;;;;;;;;;;5118037;28;20551;-40
2021/05/13 09:05:22;;;;;;;1.23;0.63;;;;;;;;;;5118174;28;20184;-40
2021/05/13 09:07:48;;;;;;;1.08;0.60;;;;;;;;;;5118124;28;20169;-40
2021/05/13 09:10:16;;;;;;;0.95;0.43;;;;;;;;;;5118342;28;20850;-40
2021/05/13 09:12:46;;;;;;;0.70;0.55;;;;;;;;;;5111795;28;20189;-40
2021/05/13 09:15:18;;;;;;;1.75;0.65;;;;;;;;;;5116444;28;20242;-40
2021/05/13 09:17:46;;;;;;;1.42;0.50;;;;;;;;;;5117933;28;20184;-40
2021/05/13 09:20:29;;;;;;;3.00;0.40;;;;;;;;;;5117423;28;20180;-40
2021/05/13 09:23:13;;;;;;;2.40;0.80;;;;;;;;;;5117640;28;20180;-41
2021/05/13 09:25:40;;;;;;;1.42;0.68;;;;;;;;;;5080029;28;20170;-40
2021/05/13 09:28:07;;;;;;;1.45;0.55;;;;;;;;;;5086848;28;20165;-41
2021/05/13 09:30:35;;;;;;;0.55;0.40;;;;;;;;;;5097403;28;20209;-40
2021/05/13 09:33:01;;;;;;;0.50;0.40;;;;;;;;;;5111342;28;20185;-41
2021/05/13 09:35:28;;;;;;;0.73;0.40;;;;;;;;;;5117540;28;20189;-40
2021/05/13 09:37:58;;;;;;;0.65;0.60;;;;;;;;;;5117181;28;20187;-41
2021/05/13 09:40:41;;;;;;;1.35;0.77;;;;;;;;;;5117120;28;20197;-40
2021/05/13 09:43:10;;;;;;;1.02;0.60;;;;;;;;;;5097255;28;20215;-41
2021/05/13 09:45:47;;;;;;;1.13;0.70;;;;;;;;;;5116059;28;20762;-40
2021/05/13 09:48:31;;;;;;;2.47;0.95;;;;;;;;;;5116922;28;20280;-41
2021/05/13 09:51:14;;;;;;;7.28;1.60;;;;;;;;;;5116350;28;20177;-40
2021/05/13 09:53:41;;;;;;;4.82;2.22;;;;;;;;;;5117159;28;20180;-40
2021/05/13 09:56:26;;;;;;;2.88;1.77;;;;;;;;;;5116758;28;20184;-40
2021/05/13 09:58:52;;;;;;;5.18;1.88;;;;;;;;;;5117417;28;20192;-40
2021/05/13 10:01:18;;;;;;;3.35;1.50;;;;;;;;;;5116662;28;20219;-41
2021/05/13 10:03:45;;;;;;;5.93;1.92;;;;;;;;;;5116787;28;20177;-40
2021/05/13 10:06:12;;;;;;;3.47;1.88;;;;;;;;;;5117058;28;20173;-40
2021/05/13 10:08:38;;;;;;;2.63;1.50;;;;;;;;;;5116913;28;20432;-40
2021/05/13 10:11:06;;;;;;;5.28;1.70;;;;;;;;;;5116135;28;20196;-40
2021/05/13 10:13:33;;;;;;;4.15;1.73;;;;;;;;;;5115940;28;20223;-40
2021/05/13 10:16:00;;;;;;;4.10;1.70;;;;;;;;;;5115395;28;20299;-40
2021/05/13 10:18:29;;;;;;;2.83;1.50;;;;;;;;;;5116952;28;20173;-40
2021/05/13 10:21:05;;;;;;;3.35;1.50;;;;;;;;;;5114799;28;20201;-40
2021/05/13 10:23:31;;;;;;;5.15;1.40;;;;;;;;;;5115369;28;20180;-41
2021/05/13 10:25:57;;;;;;;2.33;1.45;;;;;;;;;;5116720;28;20248;-41
2021/05/13 10:28:27;;;;;;;3.28;1.60;;;;;;;;;;5116685;28;20192;-40
2021/05/13 10:31:07;;;;;;;2.58;1.60;;;;;;;;;;5113861;28;20544;-40
2021/05/13 10:33:44;;;;;;;3.40;1.85;;;;;;;;;;5109695;28;20592;-40
2021/05/13 10:36:14;;;;;;;4.32;1.67;;;;;;;;;;5108166;28;20659;-40
2021/05/13 10:38:41;;;;;;;5.82;2.00;;;;;;;;;;5111362;28;20184;-41
2021/05/13 10:41:26;;;;;;;3.45;1.92;;;;;;;;;;5102380;28;20228;-40
2021/05/13 10:43:52;;;;;;;5.25;2.50;;;;;;;;;;5096157;28;20787;-40
2021/05/13 10:46:31;;;;;;;3.28;1.73;;;;;;;;;;5105256;28;20204;-41
2021/05/13 10:49:15;;;;;;;4.80;2.00;;;;;;;;;;5116566;28;20169;-41
2021/05/13 10:51:42;;;;;;;6.25;2.35;;;;;;;;;;5114685;28;20192;-40
2021/05/13 10:54:08;;;;;;;7.40;2.28;;;;;;;;;;5114500;28;20181;-41
2021/05/13 10:56:35;;;;;;;7.97;2.10;;;;;;;;;;5116288;28;20272;-40
2021/05/13 10:59:02;;;;;;;5.57;2.67;;;;;;;;;;5101277;28;20525;-40
2021/05/13 11:01:49;;;;;;;6.60;2.47;;;;;;;;;;5101931;28;20269;-40
2021/05/13 11:04:34;;;;;;;11.18;3.35;;;;;;;;;;5114750;28;20169;-40
2021/05/13 11:07:01;;;;;;;22.80;5.68;;;;;;;;;;5115696;28;20173;-40
2021/05/13 11:09:46;;;;;;;32.13;7.82;;;;;;;;;;5115535;28;20181;-40
2021/05/13 11:12:12;;;;;;;35.95;7.82;;;;;;;;;;5113439;28;20552;-40
2021/05/13 11:15:00;;;;;;;29.08;7.80;;;;;;;;;;5110959;28;20186;-40
2021/05/13 11:17:43;;;;;;;31.60;8.88;;;;;;;;;;5115647;28;20445;-40
2021/05/13 11:20:31;;;;;;;38.22;10.32;;;;;;;;;;5115392;28;20212;-40
2021/05/13 11:22:57;;;;;;;41.53;10.80;;;;;;;;;;5115068;28;20426;-40
2021/05/13 11:25:43;;;;;;;42.72;10.95;;;;;;;;;;5115461;28;20573;-41
2021/05/13 11:28:29;;;;;;;39.97;10.45;;;;;;;;;;5102530;28;20248;-40
2021/05/13 11:30:57;;;;;;;40.83;10.93;;;;;;;;;;5114646;28;20181;-40
2021/05/13 11:33:23;;;;;;;50.95;12.18;;;;;;;;;;5115387;28;20230;-41
2021/05/13 11:35:49;;;;;;;44.25;12.00;;;;;;;;;;5115484;28;20263;-41
2021/05/13 11:38:19;;;;;;;44.72;12.20;;;;;;;;;;5114821;28;20177;-40
2021/05/13 11:40:45;;;;;;;50.58;13.23;;;;;;;;;;5114792;28;20207;-40
2021/05/13 11:43:21;;;;;;;42.63;12.50;;;;;;;;;;5097864;28;20536;-41
2021/05/13 11:45:47;;;;;;;49.92;13.13;;;;;;;;;;5113601;28;20192;-40
2021/05/13 11:48:24;;;;;;;51.65;13.32;;;;;;;;;;5102902;28;20590;-41
2021/05/13 11:50:50;;;;;;;48.70;11.98;;;;;;;;;;5106118;28;20182;-40
2021/05/13 11:53:17;;;;;;;43.97;12.32;;;;;;;;;;5114721;28;20181;-41
2021/05/13 11:55:44;;;;;;;43.05;12.07;;;;;;;;;;5115371;28;20169;-40
2021/05/13 11:58:10;;;;;;;35.60;11.15;;;;;;;;;;5115253;28;20201;-41
2021/05/13 12:00:36;;;;;;;42.92;11.80;;;;;;;;;;5112927;28;20201;-41
2021/05/13 12:03:13;;;;;;;36.45;10.93;;;;;;;;;;5115054;28;20173;-41
2021/05/13 12:05:49;;;;;;;38.50;11.77;;;;;;;;;;5114776;28;20176;-40
2021/05/13 12:08:19;;;;;;;35.35;10.95;;;;;;;;;;5114999;28;20168;-40
2021/05/13 12:10:46;;;;;;;37.00;11.65;;;;;;;;;;5114752;28;20601;-40
2021/05/13 12:13:12;;;;;;;39.90;11.38;;;;;;;;;;5107275;28;20238;-40
2021/05/13 12:15:38;;;;;;;33.25;10.77;;;;;;;;;;5109188;28;20197;-40
2021/05/13 12:18:04;;;;;;;34.60;10.93;;;;;;;;;;5108600;28;20464;-41
2021/05/13 12:20:32;;;;;;;34.03;11.15;;;;;;;;;;5103469;28;20205;-41
2021/05/13 12:22:59;;;;;;;27.70;10.25;;;;;;;;;;5114531;28;20267;-40
2021/05/13 12:25:25;;;;;;;31.50;10.15;;;;;;;;;;5115008;28;20291;-41
2021/05/13 12:27:51;;;;;;;32.45;10.45;;;;;;;;;;5115026;28;20293;-41
2021/05/13 12:30:20;;;;;;;29.65;10.30;;;;;;;;;;5114921;28;20197;-41
2021/05/13 12:32:46;;;;;;;27.90;9.70;;;;;;;;;;5113344;28;20185;-40
2021/05/13 12:35:22;;;;;;;25.05;8.90;;;;;;;;;;5113872;28;20169;-41
2021/05/13 12:37:48;;;;;;;26.80;9.18;;;;;;;;;;5118439;28;20485;-41
2021/05/13 12:40:14;;;;;;;24.20;9.02;;;;;;;;;;5118701;28;20199;-40
2021/05/13 12:42:41;;;;;;;22.75;9.10;;;;;;;;;;5118336;28;20268;-41
2021/05/13 12:45:17;;;;;;;26.90;9.07;;;;;;;;;;5118634;28;20610;-41
2021/05/13 12:47:43;;;;;;;24.92;9.02;;;;;;;;;;5118751;28;20188;-41
2021/05/13 12:50:10;;;;;;;25.83;8.20;;;;;;;;;;5118258;28;20169;-41
2021/05/13 12:52:37;;;;;;;24.88;8.82;;;;;;;;;;5114385;28;20184;-41
2021/05/13 12:55:29;;;;;;;23.60;8.68;;;;;;;;;;5104255;28;20174;-40
2021/05/13 12:57:55;;;;;;;25.05;8.18;;;;;;;;;;5100329;28;20193;-41
2021/05/13 13:00:21;;;;;;;22.73;7.63;;;;;;;;;;5117988;28;20192;-41
2021/05/13 13:02:47;;;;;;;21.13;7.90;;;;;;;;;;5118012;28;20237;-41
2021/05/13 13:05:18;;;;;;;23.08;8.18;;;;;;;;;;5118285;28;20185;-41
2021/05/13 13:07:45;;;;;;;23.17;7.95;;;;;;;;;;5116542;28;20205;-41
2021/05/13 13:10:35;;;;;;;21.10;7.78;;;;;;;;;;5101516;28;20257;-41
2021/05/13 13:13:06;;;;;;;17.95;7.53;;;;;;;;;;5095890;28;20173;-41
2021/05/13 13:15:35;;;;;;;20.42;7.47;;;;;;;;;;5117559;28;20246;-41
2021/05/13 13:18:06;;;;;;;18.40;8.38;;;;;;;;;;5118206;28;20157;-41
2021/05/13 13:20:32;;;;;;;18.95;7.45;;;;;;;;;;5117249;28;20204;-40
2021/05/13 13:23:17;;;;;;;18.88;7.22;;;;;;;;;;5116933;28;20173;-41
2021/05/13 13:25:43;;;;;;;15.82;6.95;;;;;;;;;;5117999;28;20172;-41
2021/05/13 13:28:09;;;;;;;17.65;7.32;;;;;;;;;;5118233;28;20168;-40
2021/05/13 13:30:35;;;;;;;19.20;7.80;;;;;;;;;;5117152;28;20184;-41
2021/05/13 13:33:12;;;;;;;20.85;7.35;;;;;;;;;;5116918;28;20177;-41
2021/05/13 13:35:41;;;;;;;16.65;6.35;;;;;;;;;;5117823;28;20185;-40
2021/05/13 13:38:09;;;;;;;17.65;7.20;;;;;;;;;;5115202;28;20213;-41
2021/05/13 13:40:35;;;;;;;13.93;6.40;;;;;;;;;;5117345;28;20586;-41
2021/05/13 13:43:01;;;;;;;14.50;6.60;;;;;;;;;;5117423;28;20177;-40
2021/05/13 13:45:28;;;;;;;16.38;6.78;;;;;;;;;;5114020;28;20304;-41
2021/05/13 13:47:54;;;;;;;14.20;6.28;;;;;;;;;;5112869;28;20226;-41
2021/05/13 13:50:21;;;;;;;14.90;6.43;;;;;;;;;;5117049;28;20583;-40
2021/05/13 13:52:47;;;;;;;12.45;6.07;;;;;;;;;;5113407;28;20466;-41
2021/05/13 13:55:13;;;;;;;12.27;6.25;;;;;;;;;;5102680;28;20172;-41
2021/05/13 13:57:39;;;;;;;11.50;5.07;;;;;;;;;;5114608;28;20596;-41
2021/05/13 14:00:06;;;;;;;15.35;5.85;;;;;;;;;;5099047;28;20371;-41
2021/05/13 14:02:35;;;;;;;12.88;6.10;;;;;;;;;;5116395;28;20208;-40
2021/05/13 14:05:01;;;;;;;11.98;5.57;;;;;;;;;;5117005;28;20172;-41
2021/05/13 14:07:27;;;;;;;14.45;6.25;;;;;;;;;;5116221;28;20182;-41
2021/05/13 14:09:54;;;;;;;11.82;5.75;;;;;;;;;;5117138;28;20180;-41
2021/05/13 14:12:20;;;;;;;11.88;5.72;;;;;;;;;;5116227;28;20195;-41
2021/05/13 14:14:46;;;;;;;14.18;6.00;;;;;;;;;;5097652;28;20201;-41
2021/05/13 14:17:12;;;;;;;15.77;6.07;;;;;;;;;;5096861;28;20166;-41
2021/05/13 14:19:38;;;;;;;15.02;5.75;;;;;;;;;;5111042;28;20259;-40
2021/05/13 14:22:04;;;;;;;11.45;5.03;;;;;;;;;;5102923;28;20292;-41
2021/05/13 14:24:30;;;;;;;13.00;5.47;;;;;;;;;;5116553;28;20212;-41
2021/05/13 14:26:56;;;;;;;14.23;5.57;;;;;;;;;;5116135;28;20553;-41
2021/05/13 14:29:22;;;;;;;12.30;5.88;;;;;;;;;;5116016;28;20226;-41
2021/05/13 14:31:48;;;;;;;11.38;5.28;;;;;;;;;;5116354;28;20170;-41
2021/05/13 14:34:14;;;;;;;10.85;5.05;;;;;;;;;;5114986;28;20544;-41
2021/05/13 14:36:40;;;;;;;9.95;4.90;;;;;;;;;;5116093;28;20181;-41
2021/05/13 14:39:06;;;;;;;9.73;4.45;;;;;;;;;;5109528;28;20269;-41
2021/05/13 14:41:32;;;;;;;12.10;5.35;;;;;;;;;;5095488;28;20268;-40
2021/05/13 14:43:58;;;;;;;9.27;4.53;;;;;;;;;;5096091;28;20597;-40
2021/05/13 14:46:24;;;;;;;9.32;5.05;;;;;;;;;;5096113;28;20162;-41
2021/05/13 14:48:58;;;;;;;8.98;4.13;;;;;;;;;;5109760;28;20303;-41